createdAt,value
2017-11-05T00:01:19.538Z,67.21
2017-11-05T00:03:21.206Z,67.18
2017-11-05T00:05:22.742Z,67.22
2017-11-05T00:07:24.096Z,67.16
2017-11-05T00:09:25.741Z,67.20
2017-11-05T00:11:28.230Z,67.15
2017-11-05T00:13:29.885Z,67.16
2017-11-05T00:15:31.439Z,67.17
2017-11-05T00:17:33.179Z,67.20
2017-11-05T00:19:34.621Z,67.15
2017-11-05T00:21:36.085Z,67.20
2017-11-05T00:23:37.738Z,67.21
2017-11-05T00:25:39.283Z,67.19
2017-11-05T00:27:40.830Z,67.19
2017-11-05T00:29:42.474Z,67.21
2017-11-05T00:31:44.037Z,67.21
2017-11-05T00:33:45.699Z,67.23
2017-11-05T00:35:47.354Z,67.25
2017-11-05T00:37:49.021Z,67.26
2017-11-05T00:39:50.542Z,67.27
2017-11-05T00:41:51.859Z,67.26
2017-11-05T00:43:53.342Z,67.21
2017-11-05T00:45:54.991Z,67.03
2017-11-05T00:47:56.391Z,66.90
2017-11-05T00:49:59.536Z,66.78
2017-11-05T00:52:02.079Z,66.73
2017-11-05T00:54:03.571Z,66.62
2017-11-05T00:56:05.100Z,66.59
2017-11-05T00:58:06.666Z,66.48
2017-11-05T01:00:08.197Z,66.43
2017-11-05T01:02:09.872Z,66.35
2017-11-05T01:04:11.395Z,66.16
2017-11-05T01:06:12.626Z,66.18
2017-11-05T01:08:13.913Z,66.13
2017-11-05T01:10:15.846Z,66.22
2017-11-05T01:12:17.285Z,66.21
2017-11-05T01:14:18.954Z,66.26
2017-11-05T01:16:20.519Z,66.33
2017-11-05T01:18:22.165Z,66.28
2017-11-05T01:20:23.698Z,66.14
2017-11-05T01:22:25.074Z,66.10
2017-11-05T01:24:26.591Z,66.07
2017-11-05T01:26:28.258Z,66.18
2017-11-05T01:28:29.921Z,66.13
2017-11-05T01:30:31.574Z,66.17
2017-11-05T01:32:33.223Z,66.08
2017-11-05T01:34:34.883Z,66.18
2017-11-05T01:36:36.514Z,66.19
2017-11-05T01:38:38.185Z,66.31
2017-11-05T01:40:39.841Z,66.31
2017-11-05T01:42:41.105Z,66.18
2017-11-05T01:44:42.626Z,66.16
2017-11-05T01:46:44.279Z,66.29
2017-11-05T01:48:45.937Z,66.25
2017-11-05T01:50:48.395Z,66.33
2017-11-05T01:52:49.827Z,66.36
2017-11-05T01:54:51.288Z,66.48
2017-11-05T01:56:52.834Z,66.61
2017-11-05T01:58:54.110Z,66.65
2017-11-05T02:00:55.742Z,66.73
2017-11-05T02:02:57.396Z,66.81
2017-11-05T02:04:59.056Z,66.80
2017-11-05T02:07:00.718Z,66.83
2017-11-05T02:09:02.267Z,66.85
2017-11-05T02:11:03.904Z,66.90
2017-11-05T02:13:05.187Z,67.04
2017-11-05T02:15:06.704Z,67.04
2017-11-05T02:17:08.193Z,67.05
2017-11-05T02:19:09.692Z,67.07
2017-11-05T02:21:11.162Z,67.05
2017-11-05T02:23:12.699Z,67.15
2017-11-05T02:25:14.232Z,67.15
2017-11-05T02:27:15.792Z,67.17
2017-11-05T02:29:17.468Z,67.23
2017-11-05T02:31:18.985Z,67.16
2017-11-05T02:33:20.672Z,67.22
2017-11-05T02:35:21.997Z,67.24
2017-11-05T02:37:23.334Z,67.22
2017-11-05T02:39:24.994Z,67.25
2017-11-05T02:41:26.466Z,67.27
2017-11-05T02:43:27.993Z,67.28
2017-11-05T02:45:30.578Z,67.25
2017-11-05T02:47:32.225Z,67.33
2017-11-05T02:49:33.879Z,67.28
2017-11-05T02:51:35.143Z,67.35
2017-11-05T02:53:37.996Z,67.40
2017-11-05T02:55:39.354Z,67.34
2017-11-05T02:57:40.894Z,67.33
2017-11-05T02:59:42.260Z,67.37
2017-11-05T03:01:43.795Z,67.33
2017-11-05T03:03:45.237Z,67.31
2017-11-05T03:05:46.601Z,67.36
2017-11-05T03:07:48.239Z,67.38
2017-11-05T03:09:49.663Z,67.35
2017-11-05T03:11:51.032Z,67.33
2017-11-05T03:13:52.492Z,67.38
2017-11-05T03:15:54.042Z,67.37
2017-11-05T03:17:55.479Z,67.41
2017-11-05T03:19:57.660Z,67.40
2017-11-05T03:21:59.195Z,67.38
2017-11-05T03:24:00.453Z,67.44
2017-11-05T03:26:05.063Z,67.44
2017-11-05T03:28:06.718Z,67.42
2017-11-05T03:30:08.263Z,67.39
2017-11-05T03:32:09.810Z,67.43
2017-11-05T03:34:11.245Z,67.43
2017-11-05T03:36:12.627Z,67.45
2017-11-05T03:38:14.055Z,67.41
2017-11-05T03:40:15.403Z,67.47
2017-11-05T03:42:16.856Z,67.47
2017-11-05T03:44:18.409Z,67.48
2017-11-05T03:46:20.055Z,67.44
2017-11-05T03:48:21.499Z,67.41
2017-11-05T03:50:23.164Z,67.40
2017-11-05T03:52:24.711Z,67.42
2017-11-05T03:54:26.967Z,67.42
2017-11-05T03:56:28.531Z,67.47
2017-11-05T03:58:29.987Z,67.37
2017-11-05T04:00:31.440Z,67.42
2017-11-05T04:02:32.990Z,67.39
2017-11-05T04:04:34.471Z,67.29
2017-11-05T04:06:35.970Z,67.18
2017-11-05T04:08:37.418Z,67.11
2017-11-05T04:10:39.787Z,66.93
2017-11-05T04:12:41.131Z,66.82
2017-11-05T04:14:42.595Z,66.73
2017-11-05T04:16:44.541Z,66.61
2017-11-05T04:18:45.891Z,66.63
2017-11-05T04:20:47.354Z,66.65
2017-11-05T04:22:49.007Z,66.50
2017-11-05T04:24:50.558Z,66.41
2017-11-05T04:26:52.097Z,66.37
2017-11-05T04:28:53.749Z,66.44
2017-11-05T04:30:56.015Z,66.30
2017-11-05T04:32:57.310Z,66.32
2017-11-05T04:34:59.938Z,66.23
2017-11-05T04:37:01.378Z,66.24
2017-11-05T04:39:02.824Z,66.25
2017-11-05T04:41:05.306Z,66.23
2017-11-05T04:43:06.653Z,66.22
2017-11-05T04:45:08.202Z,66.26
2017-11-05T04:47:09.756Z,66.24
2017-11-05T04:49:11.196Z,66.16
2017-11-05T04:51:13.142Z,66.30
2017-11-05T04:53:15.118Z,66.28
2017-11-05T04:55:16.570Z,66.28
2017-11-05T04:57:18.215Z,66.25
2017-11-05T04:59:19.776Z,66.29
2017-11-05T05:01:21.099Z,66.33
2017-11-05T05:03:22.692Z,66.18
2017-11-05T05:05:24.231Z,66.20
2017-11-05T05:07:25.780Z,66.25
2017-11-05T05:09:27.321Z,66.27
2017-11-05T05:11:28.778Z,66.35
2017-11-05T05:13:30.315Z,66.37
2017-11-05T05:15:32.278Z,66.46
2017-11-05T05:17:33.840Z,66.55
2017-11-05T05:19:35.298Z,66.56
2017-11-05T05:21:36.533Z,66.56
2017-11-05T05:23:38.096Z,66.58
2017-11-05T05:25:39.576Z,66.69
2017-11-05T05:27:41.186Z,66.66
2017-11-05T05:29:42.718Z,66.71
2017-11-05T05:31:44.180Z,66.72
2017-11-05T05:33:45.622Z,66.72
2017-11-05T05:35:47.887Z,66.78
2017-11-05T05:37:50.139Z,66.79
2017-11-05T05:39:51.805Z,66.77
2017-11-05T05:41:53.160Z,66.78
2017-11-05T05:43:54.706Z,66.75
2017-11-05T05:45:56.262Z,66.76
2017-11-05T05:47:57.832Z,66.76
2017-11-05T05:49:59.259Z,66.75
2017-11-05T05:52:00.818Z,66.79
2017-11-05T05:54:02.473Z,66.69
2017-11-05T05:56:04.338Z,66.69
2017-11-05T05:58:08.020Z,66.73
2017-11-05T06:00:09.784Z,66.68
2017-11-05T06:02:11.341Z,66.70
2017-11-05T06:04:12.876Z,66.69
2017-11-05T06:06:14.417Z,66.66
2017-11-05T06:08:16.589Z,66.71
2017-11-05T06:10:18.160Z,66.72
2017-11-05T06:12:19.588Z,66.70
2017-11-05T06:14:21.049Z,66.64
2017-11-05T06:16:22.596Z,66.67
2017-11-05T06:18:24.033Z,66.63
2017-11-05T06:20:25.483Z,66.64
2017-11-05T06:22:27.109Z,66.65
2017-11-05T06:24:28.797Z,66.56
2017-11-05T06:26:30.437Z,66.55
2017-11-05T06:28:31.997Z,66.58
2017-11-05T06:30:33.446Z,66.58
2017-11-05T06:32:34.826Z,66.54
2017-11-05T06:34:36.337Z,66.57
2017-11-05T06:36:37.863Z,66.58
2017-11-05T06:38:39.433Z,66.54
2017-11-05T06:40:41.586Z,66.51
2017-11-05T06:42:43.260Z,66.51
2017-11-05T06:44:44.712Z,66.47
2017-11-05T06:46:46.458Z,66.52
2017-11-05T06:48:47.812Z,66.46
2017-11-05T06:50:49.359Z,66.41
2017-11-05T06:52:51.138Z,66.43
2017-11-05T06:54:52.660Z,66.43
2017-11-05T06:56:54.208Z,66.47
2017-11-05T06:58:55.866Z,66.42
2017-11-05T07:00:58.457Z,66.37
2017-11-05T07:03:00.000Z,66.36
2017-11-05T07:05:01.561Z,66.39
2017-11-05T07:07:03.108Z,66.34
2017-11-05T07:09:04.745Z,66.32
2017-11-05T07:11:06.396Z,66.31
2017-11-05T07:13:08.166Z,66.28
2017-11-05T07:15:09.808Z,66.26
2017-11-05T07:17:11.469Z,66.30
2017-11-05T07:19:13.128Z,66.30
2017-11-05T07:21:14.567Z,66.34
2017-11-05T07:23:16.124Z,66.25
2017-11-05T07:25:17.465Z,66.09
2017-11-05T07:27:19.739Z,65.95
2017-11-05T07:29:21.395Z,65.91
2017-11-05T07:31:22.939Z,65.71
2017-11-05T07:33:24.686Z,65.60
2017-11-05T07:35:26.447Z,65.56
2017-11-05T07:37:27.887Z,65.31
2017-11-05T07:39:29.219Z,65.32
2017-11-05T07:41:30.885Z,65.21
2017-11-05T07:43:32.441Z,65.19
2017-11-05T07:45:33.778Z,65.17
2017-11-05T07:47:35.420Z,65.12
2017-11-05T07:49:36.797Z,65.09
2017-11-05T07:51:38.444Z,64.99
2017-11-05T07:53:40.003Z,65.05
2017-11-05T07:55:41.543Z,64.99
2017-11-05T07:57:42.998Z,64.91
2017-11-05T07:59:44.780Z,64.89
2017-11-05T08:01:46.165Z,64.83
2017-11-05T08:03:47.653Z,64.85
2017-11-05T08:05:49.209Z,64.80
2017-11-05T08:07:50.745Z,64.74
2017-11-05T08:09:52.209Z,64.73
2017-11-05T08:11:53.720Z,64.74
2017-11-05T08:13:55.072Z,64.72
2017-11-05T08:15:56.650Z,64.70
2017-11-05T08:17:58.280Z,64.70
2017-11-05T08:19:59.856Z,64.70
2017-11-05T08:22:01.198Z,64.63
2017-11-05T08:24:02.739Z,64.67
2017-11-05T08:26:04.390Z,64.61
2017-11-05T08:28:05.937Z,64.52
2017-11-05T08:30:07.956Z,64.62
2017-11-05T08:32:09.670Z,64.66
2017-11-05T08:34:11.218Z,64.66
2017-11-05T08:36:12.756Z,64.70
2017-11-05T08:38:14.323Z,64.73
2017-11-05T08:40:15.865Z,64.76
2017-11-05T08:42:17.501Z,64.81
2017-11-05T08:44:19.052Z,64.81
2017-11-05T08:46:20.618Z,64.85
2017-11-05T08:48:22.393Z,64.86
2017-11-05T08:50:23.929Z,64.86
2017-11-05T08:52:25.458Z,64.88
2017-11-05T08:54:27.021Z,64.87
2017-11-05T08:56:28.579Z,64.89
2017-11-05T08:58:30.125Z,64.94
2017-11-05T09:00:31.663Z,64.94
2017-11-05T09:02:33.223Z,64.97
2017-11-05T09:04:34.777Z,64.97
2017-11-05T09:06:36.422Z,64.90
2017-11-05T09:08:37.987Z,64.92
2017-11-05T09:10:39.639Z,64.93
2017-11-05T09:12:41.197Z,64.92
2017-11-05T09:14:42.515Z,64.92
2017-11-05T09:16:43.986Z,64.87
2017-11-05T09:18:45.740Z,64.91
2017-11-05T09:20:47.285Z,64.97
2017-11-05T09:22:48.639Z,64.91
2017-11-05T09:24:50.270Z,64.95
2017-11-05T09:26:53.507Z,64.93
2017-11-05T09:28:55.003Z,64.93
2017-11-05T09:30:56.680Z,64.89
2017-11-05T09:32:58.210Z,64.91
2017-11-05T09:34:59.786Z,64.91
2017-11-05T09:37:01.441Z,64.92
2017-11-05T09:39:02.972Z,64.87
2017-11-05T09:41:04.533Z,64.84
2017-11-05T09:43:06.175Z,64.87
2017-11-05T09:45:07.735Z,64.90
2017-11-05T09:47:09.290Z,64.90
2017-11-05T09:49:10.946Z,64.86
2017-11-05T09:51:12.377Z,64.88
2017-11-05T09:53:13.941Z,64.84
2017-11-05T09:55:15.588Z,64.87
2017-11-05T09:57:17.150Z,64.84
2017-11-05T10:03:33.061Z,64.81
2017-11-05T10:05:34.494Z,64.79
2017-11-05T10:07:36.061Z,64.72
2017-11-05T10:09:37.406Z,64.76
2017-11-05T10:11:38.719Z,64.68
2017-11-05T10:13:40.292Z,64.70
2017-11-05T10:15:42.318Z,64.74
2017-11-05T10:17:43.701Z,64.63
2017-11-05T10:19:45.176Z,64.66
2017-11-05T10:21:46.689Z,64.66
2017-11-05T10:23:48.036Z,64.59
2017-11-05T10:25:49.602Z,64.62
2017-11-05T10:27:51.150Z,64.59
2017-11-05T10:29:52.906Z,64.61
2017-11-05T10:31:54.450Z,64.57
2017-11-05T10:33:55.904Z,64.61
2017-11-05T10:35:57.347Z,64.62
2017-11-05T10:37:58.913Z,64.60
2017-11-05T10:40:00.250Z,64.54
2017-11-05T10:42:01.911Z,64.52
2017-11-05T10:44:03.468Z,64.46
2017-11-05T10:46:04.999Z,64.30
2017-11-05T10:48:06.651Z,64.21
2017-11-05T10:50:08.110Z,64.14
2017-11-05T10:52:09.649Z,63.99
2017-11-05T10:54:10.920Z,63.88
2017-11-05T10:56:12.452Z,63.79
2017-11-05T10:58:15.033Z,63.64
2017-11-05T11:00:16.666Z,63.59
2017-11-05T11:02:18.321Z,63.52
2017-11-05T11:04:19.880Z,63.50
2017-11-05T11:06:21.320Z,63.46
2017-11-05T11:08:22.851Z,63.39
2017-11-05T11:10:24.208Z,63.34
2017-11-05T11:12:25.631Z,63.25
2017-11-05T11:14:27.312Z,63.26
2017-11-05T11:16:29.682Z,63.20
2017-11-05T11:18:31.235Z,63.23
2017-11-05T11:20:32.802Z,63.22
2017-11-05T11:22:34.338Z,63.17
2017-11-05T11:24:36.028Z,63.11
2017-11-05T11:26:37.867Z,63.14
2017-11-05T11:28:39.301Z,63.14
2017-11-05T11:30:40.751Z,63.11
2017-11-05T11:32:42.597Z,63.10
2017-11-05T11:34:44.158Z,63.01
2017-11-05T11:36:45.617Z,63.03
2017-11-05T11:38:47.269Z,63.00
2017-11-05T11:40:48.910Z,63.05
2017-11-05T11:42:50.585Z,63.01
2017-11-05T11:44:52.105Z,62.99
2017-11-05T11:46:53.469Z,63.00
2017-11-05T11:48:55.019Z,63.02
2017-11-05T11:50:56.567Z,63.04
2017-11-05T11:52:57.989Z,63.07
2017-11-05T11:54:59.556Z,63.08
2017-11-05T11:57:01.107Z,63.10
2017-11-05T11:59:02.674Z,63.04
2017-11-05T12:01:04.323Z,63.07
2017-11-05T12:03:05.875Z,63.09
2017-11-05T12:05:07.314Z,63.07
2017-11-05T12:07:08.866Z,63.07
2017-11-05T12:09:10.209Z,63.07
2017-11-05T12:11:11.560Z,62.98
2017-11-05T12:13:13.113Z,63.00
2017-11-05T12:15:14.671Z,62.98
2017-11-05T12:17:16.117Z,62.92
2017-11-05T12:19:17.958Z,62.88
2017-11-05T12:21:19.524Z,62.84
2017-11-05T12:23:21.202Z,62.77
2017-11-05T12:25:22.823Z,62.78
2017-11-05T12:27:24.492Z,62.70
2017-11-05T12:29:26.041Z,62.69
2017-11-05T12:31:27.593Z,62.70
2017-11-05T12:33:29.252Z,62.60
2017-11-05T12:35:30.793Z,62.60
2017-11-05T12:37:32.435Z,62.52
2017-11-05T12:39:34.100Z,62.52
2017-11-05T12:41:35.762Z,62.50
2017-11-05T12:43:37.304Z,62.52
2017-11-05T12:45:39.056Z,62.46
2017-11-05T12:47:40.634Z,62.39
2017-11-05T12:49:42.142Z,62.40
2017-11-05T12:51:43.807Z,62.35
2017-11-05T12:53:45.254Z,62.30
2017-11-05T12:55:46.697Z,62.30
2017-11-05T12:57:48.341Z,62.19
2017-11-05T12:59:49.926Z,62.16
2017-11-05T13:01:51.453Z,62.19
2017-11-05T13:03:53.025Z,62.13
2017-11-05T13:05:54.562Z,62.11
2017-11-05T13:07:56.110Z,62.04
2017-11-05T13:09:57.766Z,62.04
2017-11-05T13:11:59.317Z,61.98
2017-11-05T13:14:00.627Z,61.89
2017-11-05T13:16:02.211Z,61.89
2017-11-05T13:18:03.673Z,61.80
2017-11-05T13:20:05.319Z,61.77
2017-11-05T13:22:06.847Z,61.76
2017-11-05T13:24:08.077Z,61.71
2017-11-05T13:26:09.764Z,61.21
2017-11-05T13:28:11.397Z,61.10
2017-11-05T13:30:12.878Z,61.14
2017-11-05T13:32:14.625Z,61.15
2017-11-05T13:34:18.839Z,61.15
2017-11-05T13:36:20.270Z,61.05
2017-11-05T13:38:21.958Z,60.97
2017-11-05T13:40:23.565Z,60.91
2017-11-05T13:42:25.948Z,60.84
2017-11-05T13:44:27.499Z,60.88
2017-11-05T13:46:29.051Z,60.83
2017-11-05T13:48:31.427Z,60.89
2017-11-05T13:50:32.912Z,60.82
2017-11-05T13:52:34.419Z,60.78
2017-11-05T13:54:36.075Z,60.69
2017-11-05T13:56:38.003Z,60.68
2017-11-05T13:58:39.582Z,60.61
2017-11-05T14:00:41.340Z,60.51
2017-11-05T14:02:42.904Z,60.47
2017-11-05T14:04:44.544Z,60.32
2017-11-05T14:06:46.200Z,60.17
2017-11-05T14:08:47.853Z,60.01
2017-11-05T14:10:49.497Z,59.78
2017-11-05T14:12:51.157Z,59.70
2017-11-05T14:14:52.709Z,59.61
2017-11-05T14:16:54.261Z,59.48
2017-11-05T14:18:55.902Z,59.38
2017-11-05T14:20:57.489Z,59.31
2017-11-05T14:22:59.324Z,59.19
2017-11-05T14:25:01.074Z,59.13
2017-11-05T14:27:02.524Z,59.00
2017-11-05T14:29:04.279Z,58.91
2017-11-05T14:31:06.030Z,58.81
2017-11-05T14:33:07.576Z,58.83
2017-11-05T14:35:09.749Z,58.78
2017-11-05T14:37:11.625Z,58.80
2017-11-05T14:39:13.141Z,58.68
2017-11-05T14:41:14.692Z,58.71
2017-11-05T14:43:16.361Z,58.71
2017-11-05T14:45:18.120Z,58.63
2017-11-05T14:47:19.681Z,58.61
2017-11-05T14:49:21.917Z,58.58
2017-11-05T14:51:23.494Z,58.57
2017-11-05T14:53:25.224Z,58.54
2017-11-05T14:57:34.613Z,58.50
2017-11-05T14:59:36.355Z,58.47
2017-11-05T15:01:37.891Z,58.49
2017-11-05T15:03:39.655Z,58.42
2017-11-05T15:05:42.210Z,57.20
2017-11-05T15:07:45.296Z,57.62
2017-11-05T15:09:48.381Z,57.86
2017-11-05T15:13:57.642Z,58.10
2017-11-05T15:15:59.312Z,58.22
2017-11-05T15:18:01.142Z,58.41
2017-11-05T15:20:03.039Z,58.46
2017-11-05T15:22:04.601Z,58.54
2017-11-05T15:24:10.944Z,58.49
2017-11-05T15:26:13.329Z,58.70
2017-11-05T15:28:15.654Z,58.68
2017-11-05T15:32:30.677Z,58.68
2017-11-05T15:34:32.622Z,58.69
2017-11-05T15:36:36.174Z,58.55
2017-11-05T15:38:42.524Z,58.68
2017-11-05T15:40:46.287Z,58.71
2017-11-05T15:42:50.326Z,58.92
2017-11-05T15:44:53.491Z,58.78
2017-11-05T15:46:58.796Z,58.75
2017-11-05T15:51:13.503Z,58.82
2017-11-05T15:53:17.568Z,58.83
2017-11-05T15:55:19.676Z,58.83
2017-11-05T15:57:21.517Z,58.85
2017-11-05T15:59:24.522Z,59.04
2017-11-05T16:01:26.358Z,59.02
2017-11-05T16:03:28.122Z,58.98
2017-11-05T16:05:29.873Z,59.04
2017-11-05T16:07:31.405Z,59.16
2017-11-05T16:09:32.960Z,59.04
2017-11-05T16:11:34.853Z,59.11
2017-11-05T16:13:36.624Z,59.12
2017-11-05T16:15:38.319Z,58.98
2017-11-05T16:17:40.110Z,59.14
2017-11-05T16:19:44.688Z,59.12
2017-11-05T16:21:47.808Z,59.09
2017-11-05T16:23:49.681Z,59.11
2017-11-05T16:25:51.520Z,59.01
2017-11-05T16:27:53.479Z,59.02
2017-11-05T16:29:55.608Z,59.01
2017-11-05T16:31:57.529Z,58.92
2017-11-05T16:33:59.359Z,58.93
2017-11-05T16:36:01.222Z,58.79
2017-11-05T16:38:02.919Z,58.90
2017-11-05T16:40:04.609Z,58.96
2017-11-05T16:42:06.190Z,58.92
2017-11-05T16:44:08.351Z,58.86
2017-11-05T16:46:11.170Z,58.89
2017-11-05T16:48:13.032Z,58.78
2017-11-05T16:50:14.931Z,58.80
2017-11-05T16:52:22.202Z,58.80
2017-11-05T16:54:27.172Z,58.64
2017-11-05T16:56:32.524Z,58.70
2017-11-05T16:58:36.682Z,58.59
2017-11-05T17:00:38.868Z,58.62
2017-11-05T17:02:40.832Z,58.65
2017-11-05T17:04:42.661Z,58.55
2017-11-05T17:06:44.443Z,58.48
2017-11-05T17:08:46.395Z,58.42
2017-11-05T17:10:49.287Z,58.62
2017-11-05T17:12:51.393Z,58.49
2017-11-05T17:14:53.754Z,58.41
2017-11-05T17:16:59.336Z,58.37
2017-11-05T17:19:02.968Z,58.25
2017-11-05T17:21:05.029Z,58.16
2017-11-05T17:23:06.873Z,58.03
2017-11-05T17:25:10.126Z,58.12
2017-11-05T17:29:22.386Z,58.00
2017-11-05T17:31:25.523Z,57.88
2017-11-05T17:33:29.932Z,58.05
2017-11-05T17:35:34.610Z,58.11
2017-11-05T17:37:39.493Z,58.04
2017-11-05T17:39:41.708Z,57.86
2017-11-05T17:41:43.559Z,57.94
2017-11-05T17:43:46.897Z,57.90
2017-11-05T17:45:49.895Z,58.10
2017-11-05T17:47:52.222Z,58.06
2017-11-05T17:49:54.080Z,58.08
2017-11-05T17:51:55.803Z,58.14
2017-11-05T17:53:57.796Z,58.24
2017-11-05T17:56:01.615Z,58.18
2017-11-05T17:58:04.408Z,58.16
2017-11-05T18:00:06.841Z,58.29
2017-11-05T18:02:08.595Z,58.46
2017-11-05T18:04:10.472Z,58.37
2017-11-05T18:06:12.201Z,58.33
2017-11-05T18:08:13.862Z,58.52
2017-11-05T18:10:15.626Z,58.53
2017-11-05T18:12:17.362Z,58.63
2017-11-05T18:14:18.920Z,58.51
2017-11-05T18:16:20.786Z,58.68
2017-11-05T18:18:22.550Z,58.63
2017-11-05T18:20:24.116Z,58.71
2017-11-05T18:22:27.165Z,58.75
2017-11-05T18:24:28.920Z,58.64
2017-11-05T18:26:30.482Z,58.75
2017-11-05T18:28:32.142Z,58.91
2017-11-05T18:30:34.427Z,58.99
2017-11-05T18:32:36.651Z,59.17
2017-11-05T18:34:40.600Z,59.01
2017-11-05T18:36:42.438Z,59.13
2017-11-05T18:38:45.039Z,59.25
2017-11-05T18:40:47.231Z,59.32
2017-11-05T18:42:49.042Z,59.26
2017-11-05T18:44:51.485Z,59.32
2017-11-05T18:46:53.296Z,59.45
2017-11-05T18:48:55.765Z,59.68
2017-11-05T18:50:58.553Z,59.65
2017-11-05T18:53:01.008Z,59.78
2017-11-05T18:55:02.985Z,59.74
2017-11-05T18:57:05.054Z,59.91
2017-11-05T18:59:07.803Z,59.97
2017-11-05T19:01:10.417Z,60.05
2017-11-05T19:05:18.479Z,59.96
2017-11-05T19:07:20.458Z,60.09
2017-11-05T19:09:22.734Z,60.04
2017-11-05T19:11:25.742Z,60.07
2017-11-05T19:13:31.028Z,60.00
2017-11-05T19:15:32.658Z,60.15
2017-11-05T19:17:35.369Z,60.30
2017-11-05T19:19:40.844Z,60.29
2017-11-05T19:21:42.949Z,60.14
2017-11-05T19:23:44.810Z,60.20
2017-11-05T19:25:46.835Z,60.15
2017-11-05T19:27:48.962Z,59.89
2017-11-05T19:29:51.437Z,59.91
2017-11-05T19:31:53.500Z,59.84
2017-11-05T19:33:55.648Z,60.01
2017-11-05T19:35:57.932Z,60.09
2017-11-05T19:38:00.001Z,60.02
2017-11-05T19:40:04.358Z,60.07
2017-11-05T19:42:06.776Z,60.11
2017-11-05T19:44:08.729Z,60.03
2017-11-05T19:46:10.682Z,59.96
2017-11-05T19:48:13.278Z,60.12
2017-11-05T19:50:16.344Z,60.26
2017-11-05T19:52:18.225Z,60.30
2017-11-05T19:54:20.178Z,60.32
2017-11-05T19:56:22.046Z,60.13
2017-11-05T19:58:24.090Z,60.14
2017-11-05T20:00:25.963Z,60.30
2017-11-05T20:02:28.973Z,60.31
2017-11-05T20:04:31.045Z,60.39
2017-11-05T20:06:32.864Z,60.24
2017-11-05T20:08:34.673Z,60.19
2017-11-05T20:10:36.610Z,60.22
2017-11-05T20:12:38.842Z,60.11
2017-11-05T20:14:40.935Z,60.03
2017-11-05T20:16:43.152Z,60.04
2017-11-05T20:18:44.920Z,60.17
2017-11-05T20:20:46.674Z,60.19
2017-11-05T20:22:48.542Z,60.32
2017-11-05T20:24:50.737Z,60.24
2017-11-05T20:26:52.575Z,60.09
2017-11-05T20:28:54.531Z,60.23
2017-11-05T20:30:56.716Z,60.28
2017-11-05T20:32:58.647Z,60.42
2017-11-05T20:35:00.526Z,60.23
2017-11-05T20:37:02.278Z,60.16
2017-11-05T20:39:04.018Z,60.08
2017-11-05T20:41:05.881Z,60.08
2017-11-05T20:43:07.848Z,59.75
2017-11-05T20:45:09.802Z,59.85
2017-11-05T20:47:11.759Z,59.73
2017-11-05T20:49:13.724Z,59.71
2017-11-05T20:51:15.683Z,59.58
2017-11-05T20:53:17.736Z,59.80
2017-11-05T20:55:19.496Z,59.83
2017-11-05T20:57:21.448Z,59.79
2017-11-05T20:59:23.408Z,59.71
2017-11-05T21:01:25.514Z,59.74
2017-11-05T21:03:27.146Z,59.86
2017-11-05T21:05:29.001Z,59.83
2017-11-05T21:07:32.821Z,59.98
2017-11-05T21:09:34.627Z,59.81
2017-11-05T21:11:36.479Z,59.84
2017-11-05T21:13:38.371Z,59.54
2017-11-05T21:15:40.114Z,59.69
2017-11-05T21:17:41.840Z,59.73
2017-11-05T21:19:43.711Z,59.81
2017-11-05T21:21:45.494Z,59.63
2017-11-05T21:23:47.156Z,59.75
2017-11-05T21:28:07.258Z,59.76
2017-11-05T21:30:08.997Z,59.93
2017-11-05T21:32:11.251Z,59.71
2017-11-05T21:34:13.360Z,59.88
2017-11-05T21:36:15.498Z,59.81
2017-11-05T21:38:17.408Z,59.70
2017-11-05T21:40:20.539Z,59.83
2017-11-05T21:42:25.147Z,59.80
2017-11-05T21:44:27.125Z,59.97
2017-11-05T21:46:30.418Z,60.17
2017-11-05T21:48:32.491Z,60.27
2017-11-05T21:50:35.149Z,60.38
2017-11-05T21:52:37.214Z,60.15
2017-11-05T21:54:39.164Z,60.25
2017-11-05T21:56:41.229Z,60.00
2017-11-05T21:58:43.084Z,60.10
2017-11-05T22:00:44.956Z,60.26
2017-11-05T22:02:46.926Z,60.19
2017-11-05T22:04:48.564Z,60.56
2017-11-05T22:06:50.439Z,60.41
2017-11-05T22:08:52.574Z,60.68
2017-11-05T22:10:54.445Z,60.75
2017-11-05T22:12:56.288Z,60.79
2017-11-05T22:14:58.054Z,60.82
2017-11-05T22:17:00.012Z,60.71
2017-11-05T22:19:02.085Z,60.72
2017-11-05T22:21:04.044Z,60.77
2017-11-05T22:23:05.915Z,60.83
2017-11-05T22:25:07.887Z,60.94
2017-11-05T22:27:10.012Z,60.92
2017-11-05T22:29:11.779Z,60.77
2017-11-05T22:31:13.851Z,60.68
2017-11-05T22:33:15.961Z,60.98
2017-11-05T22:35:17.965Z,61.20
2017-11-05T22:37:19.738Z,60.94
2017-11-05T22:39:21.776Z,61.15
2017-11-05T22:41:23.554Z,61.15
2017-11-05T22:43:25.499Z,61.04
2017-11-05T22:45:27.362Z,61.20
2017-11-05T22:47:29.323Z,61.22
2017-11-05T22:49:33.211Z,61.19
2017-11-05T22:51:35.176Z,61.13
2017-11-05T22:53:37.008Z,61.35
2017-11-05T22:55:38.666Z,61.37
2017-11-05T22:57:40.451Z,61.49
2017-11-05T22:59:42.415Z,61.61
2017-11-05T23:01:44.166Z,61.32
2017-11-05T23:03:46.013Z,61.41
2017-11-05T23:05:47.771Z,61.52
2017-11-05T23:07:49.437Z,61.47
2017-11-05T23:09:51.290Z,61.36
2017-11-05T23:11:53.042Z,61.54
2017-11-05T23:13:54.807Z,61.54
2017-11-05T23:15:56.727Z,61.50
2017-11-05T23:17:58.607Z,61.35
2017-11-05T23:20:00.776Z,61.44
2017-11-05T23:22:02.538Z,61.48
2017-11-05T23:24:04.728Z,61.50
2017-11-05T23:26:06.567Z,61.19
2017-11-05T23:28:08.493Z,61.26
2017-11-05T23:30:10.944Z,61.30
2017-11-05T23:32:12.961Z,61.24
2017-11-05T23:34:14.717Z,61.21
2017-11-05T23:36:16.406Z,61.18
2017-11-05T23:38:18.527Z,61.57
2017-11-05T23:40:20.166Z,61.59
2017-11-05T23:42:23.179Z,61.46
2017-11-05T23:44:25.213Z,61.50
2017-11-05T23:46:26.969Z,61.75
2017-11-05T23:48:28.733Z,61.54
2017-11-05T23:50:30.398Z,61.46
2017-11-05T23:52:32.334Z,61.42
2017-11-05T23:54:35.214Z,61.38
2017-11-05T23:56:36.997Z,61.22
2017-11-05T23:58:39.131Z,61.25
